Terminal Aerodrome Forecast
Issued by NWS Omaha/Valley, NE

Home | Current Version | Previous Version | Text Only | Print | Product List | Glossary Off
Versions: 1 2 3 4 5 6 7 8 9 10 11 12 13 14 15 16

000
FTUS43 KOAX 202110 AAA
TAFOFK
TAF AMD
KOFK 202110Z 2021/2118 19009KT P6SM SCT070 BKN150
      TEMPO 2021/2022 22020G30KT 5SM -TSRA BKN060CB
     FM210500 25006KT P6SM OVC120
     FM210900 32010KT P6SM OVC090
     FM211400 35015G25KT P6SM SCT250=

USA.gov is the U.S. government's official web portal to all federal, state and local government web resources and services.